Manning, Oregon
Current Conditions -  °F | °C
As of 12:53 AM on Thursday 23 Oct 2014 (Local Time) from KHIO Reporting Station
Overcast Overcast  
Wind Chill: 53°   Ceiling: 3700
Heat Index: 53°   Visibility: 10mi
Dew Point: 52°   Wind: 3mph
Humidity: 96%   Direction: 80°E
Pressure: 29.78"   Gusts: NA
Location:  45.66°N, 123.16°W
Report Text: KHIO 230753Z AUTO 08003KT 10SM BKN037 OVC080 12/11 A2978 RMK AO2 SLP082 T01170111 401440111 TSNO
Loading
Personal Weather Stations






























Interactive Weather Map
Tropical Storm Tracking
New forecast layout! Learn more

10-Day Weather Forecast

Advertisements
Track Severe Weather on mobile